createdAt,value
2022-10-23T00:01:42.572Z,44.13
2022-10-23T00:11:47.846Z,46.03
2022-10-23T00:21:49.536Z,47.20
2022-10-23T00:31:51.249Z,48.47
2022-10-23T00:41:52.959Z,48.22
2022-10-23T00:51:59.652Z,49.90
2022-10-23T01:02:02.374Z,49.33
2022-10-23T01:12:16.447Z,48.57
2022-10-23T01:22:34.069Z,45.58
2022-10-23T01:32:47.374Z,50.05
2022-10-23T01:42:55.053Z,46.55
2022-10-23T01:52:57.866Z,46.30
2022-10-23T02:03:00.472Z,49.33
2022-10-23T02:13:14.986Z,48.20
2022-10-23T02:23:19.852Z,47.88
2022-10-23T02:33:22.275Z,47.25
2022-10-23T02:43:32.447Z,48.95
2022-10-23T02:54:05.489Z,51.30
2022-10-23T03:04:10.475Z,56.78
2022-10-23T03:14:13.648Z,56.05
2022-10-23T03:24:15.369Z,48.03
2022-10-23T03:34:17.076Z,45.83
2022-10-23T03:44:18.823Z,50.65
2022-10-23T03:54:25.566Z,46.80
2022-10-23T04:04:28.974Z,49.83
2022-10-23T04:24:33.151Z,43.50
2022-10-23T04:34:35.256Z,45.87
2022-10-23T04:44:36.941Z,44.08
2022-10-23T04:54:39.331Z,43.38
2022-10-23T05:04:41.042Z,48.78
2022-10-23T05:14:42.740Z,47.75
2022-10-23T05:24:48.267Z,47.05
2022-10-23T05:34:52.293Z,47.83
2022-10-23T05:44:54.944Z,46.80
2022-10-23T05:54:57.552Z,52.87
2022-10-23T06:04:59.237Z,53.13
2022-10-23T06:15:00.809Z,52.60
2022-10-23T06:25:02.457Z,53.05
2022-10-23T06:35:05.126Z,53.38
2022-10-23T06:45:07.404Z,54.23
2022-10-23T06:55:09.592Z,54.93
2022-10-23T07:05:13.593Z,53.40
2022-10-23T07:15:16.458Z,48.97
2022-10-23T07:25:26.241Z,46.17
2022-10-23T07:35:28.879Z,43.97
2022-10-23T07:45:31.444Z,38.30
2022-10-23T07:55:35.161Z,31.80
2022-10-23T08:05:36.764Z,26.35
2022-10-23T08:15:38.482Z,17.15
2022-10-23T08:25:41.654Z,16.07
2022-10-23T08:35:45.470Z,12.40
2022-10-23T08:45:55.533Z,10.02
2022-10-23T08:56:13.507Z,10.02
2022-10-23T09:06:39.604Z,10.98
2022-10-23T09:27:20.149Z,8.73
2022-10-23T09:37:26.213Z,9.13
2022-10-23T09:47:28.663Z,8.50
2022-10-23T09:57:43.146Z,10.82
2022-10-23T10:07:56.121Z,10.43
2022-10-23T10:18:28.413Z,11.82
2022-10-23T10:28:51.542Z,12.60
2022-10-23T10:38:58.895Z,14.13
2022-10-23T10:49:08.098Z,14.20
2022-10-23T10:59:22.722Z,24.40
2022-10-23T11:09:25.882Z,13.02
2022-10-23T11:19:38.788Z,12.55
2022-10-23T11:29:57.213Z,12.73
2022-10-23T11:40:07.589Z,11.52
2022-10-23T11:50:09.401Z,10.57
2022-10-23T12:00:22.758Z,10.20
2022-10-23T12:10:30.881Z,10.40
2022-10-23T12:20:42.602Z,12.07
2022-10-23T12:30:56.980Z,12.68
2022-10-23T12:41:11.442Z,13.52
2022-10-23T12:51:23.189Z,11.15
2022-10-23T13:01:36.309Z,8.80
2022-10-23T13:11:41.519Z,8.52
2022-10-23T13:21:46.264Z,7.88
2022-10-23T13:31:49.079Z,6.95
2022-10-23T13:41:50.753Z,8.38
2022-10-23T13:51:56.311Z,8.75
2022-10-23T14:01:58.336Z,10.98
2022-10-23T14:12:00.505Z,9.98
2022-10-23T14:22:02.311Z,10.30
2022-10-23T14:32:04.082Z,10.70
2022-10-23T14:42:06.078Z,10.47
2022-10-23T14:52:07.778Z,10.57
2022-10-23T15:02:13.388Z,9.67
2022-10-23T15:12:15.489Z,10.45
2022-10-23T15:32:19.119Z,10.55
2022-10-23T15:42:22.186Z,10.47
2022-10-23T15:52:24.015Z,9.55
2022-10-23T16:02:27.337Z,10.50
2022-10-23T16:12:29.435Z,8.80
2022-10-23T16:22:31.496Z,8.18
2022-10-23T16:32:33.498Z,9.55
2022-10-23T16:42:37.059Z,9.15
2022-10-23T16:52:41.536Z,9.05
2022-10-23T17:02:44.035Z,8.32
2022-10-23T17:12:46.796Z,7.70
2022-10-23T17:22:48.520Z,4.30
2022-10-23T17:32:50.673Z,3.70
2022-10-23T17:43:00.985Z,3.72
2022-10-23T17:53:03.507Z,4.75
2022-10-23T18:03:19.870Z,5.93
2022-10-23T18:13:22.136Z,5.47
2022-10-23T18:23:33.258Z,6.15
2022-10-23T18:33:37.048Z,6.32
2022-10-23T18:43:43.659Z,9.20
2022-10-23T18:53:49.757Z,6.20
2022-10-23T19:04:00.355Z,6.43
2022-10-23T19:14:04.221Z,6.65
2022-10-23T19:24:11.426Z,6.85
2022-10-23T19:34:14.770Z,6.78
2022-10-23T19:44:16.861Z,7.35
2022-10-23T19:54:20.965Z,7.05
2022-10-23T20:04:24.459Z,8.13
2022-10-23T20:14:28.361Z,8.18
2022-10-23T20:24:31.358Z,9.15
2022-10-23T20:34:34.220Z,9.98
2022-10-23T20:44:37.123Z,11.60
2022-10-23T20:54:41.532Z,11.13
2022-10-23T21:04:44.259Z,11.93
2022-10-23T21:14:46.214Z,11.70
2022-10-23T21:24:57.015Z,12.37
2022-10-23T21:34:59.674Z,10.70
2022-10-23T21:45:05.893Z,10.82
2022-10-23T21:55:07.928Z,10.60
2022-10-23T22:05:09.866Z,10.90
2022-10-23T22:15:11.596Z,12.47
2022-10-23T22:25:13.637Z,12.87
2022-10-23T22:35:16.278Z,13.52
2022-10-23T22:45:18.861Z,15.73
2022-10-23T23:05:22.368Z,16.13
2022-10-23T23:15:26.030Z,18.27
2022-10-23T23:25:27.719Z,18.15
2022-10-23T23:35:29.635Z,19.47
2022-10-23T23:45:31.369Z,21.93
2022-10-23T23:55:35.617Z,20.13
